Αρχική σελίδα
METAR-TAF:

METAR-TAF

Αεροδρόμια :

Χαρτούμ, Σουδάν

γεωγραφικό πλάτος: 15-36N, γεωγραφικό μήκος: 032-33E, υψόμετρο: 382 μ

Παρών καιρός

Η αναφορά έγινε 34 λεπτά πριν, στις 23:30 UTC
Άνεμος 7 kt από Β
Θερμοκρασία 22°C
Υγρασία 17%
Πίεση 1014 hPa
Ορατότητα 10 χλμ και άνω
Δεν υπάρχουν νέφη με βάση κάτω από τα 1500 μ. και δεν υπάρχουν νέφη σωρειτομελανίτες.

METAR: HSSS 212330Z 35007KT CAVOK 22/M04 Q1014 NOSIG

Χρόνος: 03:04 (00:04 UTC)

Πρόγνωση Καιρού

Η αναφορά έγινε 1 ώρα και 4 λεπτά πριν, στις 23:00 UTC
Η πρόγνωση ισχύει από τις 22 στις 00 UTC έως τις 23 στις 06 UTC
Άνεμος 8 kt από Β με ριπές μέχρι 18 kt
Ορατότητα 10 χλμ και άνω
Δεν υπάρχουν νέφη με βάση κάτω από τα 1500 μ. και δεν υπάρχουν νέφη σωρειτομελανίτες.
Προσωρινά
από 22 στις 05 UTC έως τις 22 στις 09 UTC
Ορατότητα: 8000 μ

TAF: HSSS 212300Z 2200/2306 36008G18KT CAVOK TEMPO 2205/2209 8000

Μετεωρολογικές αναφορές και προγνώσεις για περισσότερα από 4000 αεροδρόμια (δελτία METAR και TAF).

Οι διαθέσιμοι σταθμοί απεικονίζονται στο χάρτη με κίτρινες και κόκκινες κουκκίδες.

Μετακινήστε το ποντίκι πάνω από τις κουκκίδες για να δείτε το όνομα του σταθμού.

Στη συνέχεια, κάντε κλικ για να δείτε τις μετεωρολογικές αναφορές και τις προγνώσεις καιρού.

Για να αλλάξετε το χάρτη: κάντε κλικ στα πράσινα κουμπιά με τον μαύρο σταυρό για να ζουμάρετε, στο πράσινο κουμπί με την παύλα για να αφαιρέσετε το ζουμ ή στα πράσινα βέλη για να αντιπαραβάλλετε χάρτες.


METAR-TAF: